sensor_id;sensor_type;location;lat;lon;timestamp;P1;durP1;ratioP1;P2;durP2;ratioP2
19605;SDS011;9950;50.168;8.210;2024-03-02T00:00:03;35.85;;;21.20;;
19605;SDS011;9950;50.168;8.210;2024-03-02T00:02:39;37.50;;;21.23;;
19605;SDS011;9950;50.168;8.210;2024-03-02T00:05:07;33.22;;;20.48;;
19605;SDS011;9950;50.168;8.210;2024-03-02T00:07:34;36.38;;;20.33;;
19605;SDS011;9950;50.168;8.210;2024-03-02T00:10:03;29.67;;;18.67;;
19605;SDS011;9950;50.168;8.210;2024-03-02T00:12:32;31.75;;;17.92;;
19605;SDS011;9950;50.168;8.210;2024-03-02T00:15:01;30.67;;;18.02;;
19605;SDS011;9950;50.168;8.210;2024-03-02T00:17:28;33.38;;;18.33;;
19605;SDS011;9950;50.168;8.210;2024-03-02T00:19:56;32.53;;;19.15;;
19605;SDS011;9950;50.168;8.210;2024-03-02T00:22:23;31.88;;;19.38;;
19605;SDS011;9950;50.168;8.210;2024-03-02T00:24:50;31.48;;;18.25;;
19605;SDS011;9950;50.168;8.210;2024-03-02T00:27:18;32.38;;;18.90;;
19605;SDS011;9950;50.168;8.210;2024-03-02T00:29:46;29.27;;;18.05;;
19605;SDS011;9950;50.168;8.210;2024-03-02T00:32:15;32.67;;;18.77;;
19605;SDS011;9950;50.168;8.210;2024-03-02T00:34:43;28.90;;;16.95;;
19605;SDS011;9950;50.168;8.210;2024-03-02T00:37:10;27.80;;;17.38;;
19605;SDS011;9950;50.168;8.210;2024-03-02T00:39:38;33.55;;;18.83;;
19605;SDS011;9950;50.168;8.210;2024-03-02T00:42:05;30.73;;;18.15;;
19605;SDS011;9950;50.168;8.210;2024-03-02T00:44:33;29.02;;;17.45;;
19605;SDS011;9950;50.168;8.210;2024-03-02T00:47:02;33.95;;;18.52;;
19605;SDS011;9950;50.168;8.210;2024-03-02T00:49:31;32.30;;;18.38;;
19605;SDS011;9950;50.168;8.210;2024-03-02T00:51:58;32.85;;;19.20;;
19605;SDS011;9950;50.168;8.210;2024-03-02T00:54:26;33.17;;;19.70;;
19605;SDS011;9950;50.168;8.210;2024-03-02T00:56:53;36.67;;;19.27;;
19605;SDS011;9950;50.168;8.210;2024-03-02T00:59:21;35.78;;;19.45;;
19605;SDS011;9950;50.168;8.210;2024-03-02T01:01:48;32.83;;;19.08;;
19605;SDS011;9950;50.168;8.210;2024-03-02T01:04:16;32.28;;;19.35;;
19605;SDS011;9950;50.168;8.210;2024-03-02T01:06:45;30.33;;;18.70;;
19605;SDS011;9950;50.168;8.210;2024-03-02T01:09:13;35.95;;;19.33;;
19605;SDS011;9950;50.168;8.210;2024-03-02T01:11:40;29.27;;;18.48;;
19605;SDS011;9950;50.168;8.210;2024-03-02T01:14:07;32.35;;;18.58;;
19605;SDS011;9950;50.168;8.210;2024-03-02T01:16:35;35.97;;;19.75;;
19605;SDS011;9950;50.168;8.210;2024-03-02T01:19:02;34.00;;;19.40;;
19605;SDS011;9950;50.168;8.210;2024-03-02T01:21:30;30.88;;;18.65;;
19605;SDS011;9950;50.168;8.210;2024-03-02T01:23:58;33.28;;;18.90;;
19605;SDS011;9950;50.168;8.210;2024-03-02T01:26:26;30.33;;;18.90;;
19605;SDS011;9950;50.168;8.210;2024-03-02T01:28:53;30.27;;;17.73;;
19605;SDS011;9950;50.168;8.210;2024-03-02T01:31:20;29.98;;;17.88;;
19605;SDS011;9950;50.168;8.210;2024-03-02T01:33:48;33.08;;;18.20;;
19605;SDS011;9950;50.168;8.210;2024-03-02T01:36:15;34.97;;;19.73;;
19605;SDS011;9950;50.168;8.210;2024-03-02T01:38:43;33.75;;;19.30;;
19605;SDS011;9950;50.168;8.210;2024-03-02T01:41:12;31.63;;;18.88;;
19605;SDS011;9950;50.168;8.210;2024-03-02T01:43:39;36.97;;;20.45;;
19605;SDS011;9950;50.168;8.210;2024-03-02T01:46:06;36.47;;;19.80;;
19605;SDS011;9950;50.168;8.210;2024-03-02T01:48:34;32.78;;;19.02;;
19605;SDS011;9950;50.168;8.210;2024-03-02T01:51:01;32.97;;;19.23;;
19605;SDS011;9950;50.168;8.210;2024-03-02T01:53:30;33.63;;;18.88;;
19605;SDS011;9950;50.168;8.210;2024-03-02T01:55:57;30.65;;;18.10;;
19605;SDS011;9950;50.168;8.210;2024-03-02T01:58:25;33.75;;;19.58;;
19605;SDS011;9950;50.168;8.210;2024-03-02T02:00:53;30.00;;;18.90;;
19605;SDS011;9950;50.168;8.210;2024-03-02T02:03:20;28.73;;;18.42;;
19605;SDS011;9950;50.168;8.210;2024-03-02T02:05:47;31.83;;;18.58;;
19605;SDS011;9950;50.168;8.210;2024-03-02T02:08:15;32.08;;;18.88;;
19605;SDS011;9950;50.168;8.210;2024-03-02T02:10:42;29.40;;;17.95;;
19605;SDS011;9950;50.168;8.210;2024-03-02T02:13:09;27.23;;;17.00;;
19605;SDS011;9950;50.168;8.210;2024-03-02T02:15:38;31.33;;;18.13;;
19605;SDS011;9950;50.168;8.210;2024-03-02T02:18:05;28.35;;;17.02;;
19605;SDS011;9950;50.168;8.210;2024-03-02T02:20:33;30.35;;;18.25;;
19605;SDS011;9950;50.168;8.210;2024-03-02T02:23:02;35.17;;;18.77;;
19605;SDS011;9950;50.168;8.210;2024-03-02T02:25:30;31.67;;;18.63;;
19605;SDS011;9950;50.168;8.210;2024-03-02T02:27:57;32.22;;;18.08;;
19605;SDS011;9950;50.168;8.210;2024-03-02T02:30:27;31.52;;;17.23;;
19605;SDS011;9950;50.168;8.210;2024-03-02T02:32:54;26.88;;;16.50;;
19605;SDS011;9950;50.168;8.210;2024-03-02T02:35:22;30.90;;;16.98;;
19605;SDS011;9950;50.168;8.210;2024-03-02T02:37:50;34.03;;;17.92;;
19605;SDS011;9950;50.168;8.210;2024-03-02T02:40:19;28.80;;;16.73;;
19605;SDS011;9950;50.168;8.210;2024-03-02T02:42:46;28.90;;;16.98;;
19605;SDS011;9950;50.168;8.210;2024-03-02T02:45:13;26.88;;;16.50;;
19605;SDS011;9950;50.168;8.210;2024-03-02T02:47:41;32.55;;;17.60;;
19605;SDS011;9950;50.168;8.210;2024-03-02T02:50:08;30.98;;;18.23;;
19605;SDS011;9950;50.168;8.210;2024-03-02T02:52:36;32.83;;;18.25;;
19605;SDS011;9950;50.168;8.210;2024-03-02T02:55:06;30.88;;;17.77;;
19605;SDS011;9950;50.168;8.210;2024-03-02T02:57:35;32.28;;;18.65;;
19605;SDS011;9950;50.168;8.210;2024-03-02T03:00:04;30.83;;;17.58;;
19605;SDS011;9950;50.168;8.210;2024-03-02T03:02:36;27.83;;;17.30;;
19605;SDS011;9950;50.168;8.210;2024-03-02T03:05:03;31.10;;;17.13;;
19605;SDS011;9950;50.168;8.210;2024-03-02T03:07:31;29.15;;;17.27;;
19605;SDS011;9950;50.168;8.210;2024-03-02T03:09:59;32.03;;;16.75;;
19605;SDS011;9950;50.168;8.210;2024-03-02T03:12:26;28.15;;;16.83;;
19605;SDS011;9950;50.168;8.210;2024-03-02T03:14:55;30.02;;;17.15;;
19605;SDS011;9950;50.168;8.210;2024-03-02T03:17:22;27.77;;;16.17;;
19605;SDS011;9950;50.168;8.210;2024-03-02T03:19:50;26.52;;;15.13;;
19605;SDS011;9950;50.168;8.210;2024-03-02T03:22:17;27.08;;;16.08;;
19605;SDS011;9950;50.168;8.210;2024-03-02T03:24:44;27.63;;;16.00;;
19605;SDS011;9950;50.168;8.210;2024-03-02T03:27:12;25.15;;;15.23;;
19605;SDS011;9950;50.168;8.210;2024-03-02T03:29:39;27.50;;;16.48;;
19605;SDS011;9950;50.168;8.210;2024-03-02T03:32:08;25.48;;;15.77;;
19605;SDS011;9950;50.168;8.210;2024-03-02T03:34:35;23.90;;;14.43;;
19605;SDS011;9950;50.168;8.210;2024-03-02T03:37:03;22.17;;;13.85;;
19605;SDS011;9950;50.168;8.210;2024-03-02T03:39:30;24.13;;;14.75;;
19605;SDS011;9950;50.168;8.210;2024-03-02T03:41:57;23.52;;;13.90;;
19605;SDS011;9950;50.168;8.210;2024-03-02T03:44:25;23.67;;;13.52;;
19605;SDS011;9950;50.168;8.210;2024-03-02T03:46:52;22.85;;;14.15;;
19605;SDS011;9950;50.168;8.210;2024-03-02T03:49:20;24.88;;;14.45;;
19605;SDS011;9950;50.168;8.210;2024-03-02T03:51:48;24.38;;;14.10;;
19605;SDS011;9950;50.168;8.210;2024-03-02T03:54:15;22.58;;;13.63;;
19605;SDS011;9950;50.168;8.210;2024-03-02T03:56:42;23.20;;;14.15;;
19605;SDS011;9950;50.168;8.210;2024-03-02T03:59:09;24.55;;;14.25;;
19605;SDS011;9950;50.168;8.210;2024-03-02T04:01:37;24.02;;;14.88;;
19605;SDS011;9950;50.168;8.210;2024-03-02T04:04:04;25.02;;;14.32;;
19605;SDS011;9950;50.168;8.210;2024-03-02T04:06:33;20.67;;;13.45;;
19605;SDS011;9950;50.168;8.210;2024-03-02T04:09:00;20.35;;;12.90;;
19605;SDS011;9950;50.168;8.210;2024-03-02T04:11:29;23.00;;;13.02;;
19605;SDS011;9950;50.168;8.210;2024-03-02T04:13:56;22.88;;;14.32;;
19605;SDS011;9950;50.168;8.210;2024-03-02T04:16:24;20.42;;;12.95;;
19605;SDS011;9950;50.168;8.210;2024-03-02T04:18:51;23.30;;;13.98;;
19605;SDS011;9950;50.168;8.210;2024-03-02T04:21:18;19.63;;;12.50;;
19605;SDS011;9950;50.168;8.210;2024-03-02T04:23:47;24.17;;;13.70;;
19605;SDS011;9950;50.168;8.210;2024-03-02T04:26:14;20.52;;;13.00;;
19605;SDS011;9950;50.168;8.210;2024-03-02T04:28:47;20.20;;;12.60;;
19605;SDS011;9950;50.168;8.210;2024-03-02T04:31:14;22.65;;;12.60;;
19605;SDS011;9950;50.168;8.210;2024-03-02T04:33:41;20.20;;;12.95;;
19605;SDS011;9950;50.168;8.210;2024-03-02T04:36:09;23.48;;;13.48;;
19605;SDS011;9950;50.168;8.210;2024-03-02T04:38:36;21.08;;;13.80;;
19605;SDS011;9950;50.168;8.210;2024-03-02T04:41:05;20.05;;;12.98;;
19605;SDS011;9950;50.168;8.210;2024-03-02T04:43:32;22.58;;;13.50;;
19605;SDS011;9950;50.168;8.210;2024-03-02T04:46:00;19.63;;;11.95;;
19605;SDS011;9950;50.168;8.210;2024-03-02T04:48:27;19.48;;;11.57;;
19605;SDS011;9950;50.168;8.210;2024-03-02T04:50:54;19.90;;;11.82;;
19605;SDS011;9950;50.168;8.210;2024-03-02T04:53:22;20.23;;;11.50;;
19605;SDS011;9950;50.168;8.210;2024-03-02T04:55:49;18.58;;;11.25;;
19605;SDS011;9950;50.168;8.210;2024-03-02T04:58:50;18.05;;;11.35;;
19605;SDS011;9950;50.168;8.210;2024-03-02T05:01:17;19.08;;;10.95;;
19605;SDS011;9950;50.168;8.210;2024-03-02T05:03:44;18.13;;;11.82;;
19605;SDS011;9950;50.168;8.210;2024-03-02T05:06:12;21.65;;;12.75;;
19605;SDS011;9950;50.168;8.210;2024-03-02T05:08:39;17.45;;;11.32;;
19605;SDS011;9950;50.168;8.210;2024-03-02T05:11:06;20.45;;;11.88;;
19605;SDS011;9950;50.168;8.210;2024-03-02T05:13:53;19.05;;;11.82;;
19605;SDS011;9950;50.168;8.210;2024-03-02T05:16:20;21.98;;;12.68;;
19605;SDS011;9950;50.168;8.210;2024-03-02T05:18:47;20.85;;;12.50;;
19605;SDS011;9950;50.168;8.210;2024-03-02T05:21:14;20.67;;;11.82;;
19605;SDS011;9950;50.168;8.210;2024-03-02T05:23:42;18.35;;;12.00;;
19605;SDS011;9950;50.168;8.210;2024-03-02T05:26:09;19.90;;;12.60;;
19605;SDS011;9950;50.168;8.210;2024-03-02T05:28:37;22.33;;;13.68;;
19605;SDS011;9950;50.168;8.210;2024-03-02T05:31:06;21.02;;;13.00;;
19605;SDS011;9950;50.168;8.210;2024-03-02T05:33:33;20.85;;;12.68;;
19605;SDS011;9950;50.168;8.210;2024-03-02T05:36:01;19.10;;;12.75;;
19605;SDS011;9950;50.168;8.210;2024-03-02T05:38:28;19.92;;;13.02;;
19605;SDS011;9950;50.168;8.210;2024-03-02T05:40:55;22.25;;;12.55;;
19605;SDS011;9950;50.168;8.210;2024-03-02T05:43:22;22.50;;;13.90;;
19605;SDS011;9950;50.168;8.210;2024-03-02T05:45:50;23.08;;;12.18;;
19605;SDS011;9950;50.168;8.210;2024-03-02T05:48:18;19.30;;;12.02;;
19605;SDS011;9950;50.168;8.210;2024-03-02T05:50:46;18.95;;;11.55;;
19605;SDS011;9950;50.168;8.210;2024-03-02T05:53:13;17.05;;;11.02;;
19605;SDS011;9950;50.168;8.210;2024-03-02T05:55:41;16.77;;;10.68;;
19605;SDS011;9950;50.168;8.210;2024-03-02T05:58:08;18.90;;;11.88;;
19605;SDS011;9950;50.168;8.210;2024-03-02T06:00:47;18.98;;;11.57;;
19605;SDS011;9950;50.168;8.210;2024-03-02T06:03:15;18.50;;;11.30;;
19605;SDS011;9950;50.168;8.210;2024-03-02T06:05:43;18.80;;;11.77;;
19605;SDS011;9950;50.168;8.210;2024-03-02T06:08:11;16.20;;;10.57;;
19605;SDS011;9950;50.168;8.210;2024-03-02T06:10:38;17.77;;;11.43;;
19605;SDS011;9950;50.168;8.210;2024-03-02T06:13:05;18.27;;;11.32;;
19605;SDS011;9950;50.168;8.210;2024-03-02T06:15:32;17.67;;;10.93;;
19605;SDS011;9950;50.168;8.210;2024-03-02T06:18:01;21.20;;;11.13;;
19605;SDS011;9950;50.168;8.210;2024-03-02T06:20:28;15.93;;;10.23;;
19605;SDS011;9950;50.168;8.210;2024-03-02T06:22:57;16.63;;;10.70;;
19605;SDS011;9950;50.168;8.210;2024-03-02T06:25:25;16.88;;;11.25;;
19605;SDS011;9950;50.168;8.210;2024-03-02T06:27:52;16.35;;;10.70;;
19605;SDS011;9950;50.168;8.210;2024-03-02T06:30:19;17.27;;;11.25;;
19605;SDS011;9950;50.168;8.210;2024-03-02T06:32:46;14.35;;;9.25;;
19605;SDS011;9950;50.168;8.210;2024-03-02T06:35:14;16.65;;;9.50;;
19605;SDS011;9950;50.168;8.210;2024-03-02T06:37:41;14.35;;;9.45;;
19605;SDS011;9950;50.168;8.210;2024-03-02T06:40:10;14.82;;;9.38;;
19605;SDS011;9950;50.168;8.210;2024-03-02T06:42:37;12.23;;;8.50;;
19605;SDS011;9950;50.168;8.210;2024-03-02T06:45:05;13.73;;;8.65;;
19605;SDS011;9950;50.168;8.210;2024-03-02T06:47:32;18.13;;;9.05;;
19605;SDS011;9950;50.168;8.210;2024-03-02T06:49:59;12.50;;;8.70;;
19605;SDS011;9950;50.168;8.210;2024-03-02T06:52:27;13.48;;;8.30;;
19605;SDS011;9950;50.168;8.210;2024-03-02T06:54:54;13.55;;;8.35;;
19605;SDS011;9950;50.168;8.210;2024-03-02T06:57:23;12.98;;;8.32;;
19605;SDS011;9950;50.168;8.210;2024-03-02T06:59:50;11.45;;;7.82;;
19605;SDS011;9950;50.168;8.210;2024-03-02T07:02:20;12.05;;;7.88;;
19605;SDS011;9950;50.168;8.210;2024-03-02T07:04:48;13.85;;;8.52;;
19605;SDS011;9950;50.168;8.210;2024-03-02T07:07:16;13.10;;;8.82;;
19605;SDS011;9950;50.168;8.210;2024-03-02T07:09:43;13.82;;;8.88;;
19605;SDS011;9950;50.168;8.210;2024-03-02T07:12:11;13.40;;;8.35;;
19605;SDS011;9950;50.168;8.210;2024-03-02T07:14:39;11.90;;;7.63;;
19605;SDS011;9950;50.168;8.210;2024-03-02T07:17:24;11.85;;;7.93;;
19605;SDS011;9950;50.168;8.210;2024-03-02T07:19:52;12.00;;;8.02;;
19605;SDS011;9950;50.168;8.210;2024-03-02T07:22:19;10.52;;;6.88;;
19605;SDS011;9950;50.168;8.210;2024-03-02T07:24:46;11.98;;;6.70;;
19605;SDS011;9950;50.168;8.210;2024-03-02T07:27:14;10.25;;;6.72;;
19605;SDS011;9950;50.168;8.210;2024-03-02T07:29:43;8.93;;;6.30;;
19605;SDS011;9950;50.168;8.210;2024-03-02T07:32:10;10.45;;;6.65;;
19605;SDS011;9950;50.168;8.210;2024-03-02T07:34:38;8.80;;;6.22;;
19605;SDS011;9950;50.168;8.210;2024-03-02T07:37:05;9.52;;;6.05;;
19605;SDS011;9950;50.168;8.210;2024-03-02T07:39:32;8.57;;;6.32;;
19605;SDS011;9950;50.168;8.210;2024-03-02T07:41:59;8.27;;;5.88;;
19605;SDS011;9950;50.168;8.210;2024-03-02T07:44:26;9.80;;;6.95;;
19605;SDS011;9950;50.168;8.210;2024-03-02T07:46:55;9.90;;;6.45;;
19605;SDS011;9950;50.168;8.210;2024-03-02T07:49:23;8.50;;;5.95;;
19605;SDS011;9950;50.168;8.210;2024-03-02T07:51:50;8.10;;;5.70;;
19605;SDS011;9950;50.168;8.210;2024-03-02T07:54:17;9.60;;;6.05;;
19605;SDS011;9950;50.168;8.210;2024-03-02T07:56:44;8.80;;;5.78;;
19605;SDS011;9950;50.168;8.210;2024-03-02T07:59:12;8.63;;;6.72;;
19605;SDS011;9950;50.168;8.210;2024-03-02T08:01:40;8.90;;;6.10;;
19605;SDS011;9950;50.168;8.210;2024-03-02T08:04:08;11.48;;;6.30;;
19605;SDS011;9950;50.168;8.210;2024-03-02T08:06:36;11.75;;;7.28;;
19605;SDS011;9950;50.168;8.210;2024-03-02T08:09:03;10.15;;;6.43;;
19605;SDS011;9950;50.168;8.210;2024-03-02T08:11:34;9.63;;;6.72;;
19605;SDS011;9950;50.168;8.210;2024-03-02T08:14:02;10.77;;;6.75;;
19605;SDS011;9950;50.168;8.210;2024-03-02T08:16:29;10.88;;;6.85;;
19605;SDS011;9950;50.168;8.210;2024-03-02T08:18:57;12.48;;;7.32;;
19605;SDS011;9950;50.168;8.210;2024-03-02T08:21:26;10.63;;;6.60;;
19605;SDS011;9950;50.168;8.210;2024-03-02T08:23:55;8.85;;;6.07;;
19605;SDS011;9950;50.168;8.210;2024-03-02T08:26:23;8.77;;;5.88;;
19605;SDS011;9950;50.168;8.210;2024-03-02T08:28:54;9.52;;;5.75;;
19605;SDS011;9950;50.168;8.210;2024-03-02T08:31:21;8.93;;;6.40;;
19605;SDS011;9950;50.168;8.210;2024-03-02T08:33:48;10.02;;;6.35;;
19605;SDS011;9950;50.168;8.210;2024-03-02T08:36:16;9.80;;;6.50;;
19605;SDS011;9950;50.168;8.210;2024-03-02T08:38:45;9.63;;;6.47;;
19605;SDS011;9950;50.168;8.210;2024-03-02T08:41:13;11.68;;;6.32;;
19605;SDS011;9950;50.168;8.210;2024-03-02T08:43:41;9.70;;;6.47;;
19605;SDS011;9950;50.168;8.210;2024-03-02T08:46:08;10.40;;;7.00;;
19605;SDS011;9950;50.168;8.210;2024-03-02T08:48:35;8.45;;;5.55;;
19605;SDS011;9950;50.168;8.210;2024-03-02T08:51:03;8.75;;;5.53;;
19605;SDS011;9950;50.168;8.210;2024-03-02T08:53:32;10.52;;;5.93;;
19605;SDS011;9950;50.168;8.210;2024-03-02T08:56:01;9.32;;;5.22;;
19605;SDS011;9950;50.168;8.210;2024-03-02T08:58:30;8.55;;;5.97;;
19605;SDS011;9950;50.168;8.210;2024-03-02T09:00:58;9.52;;;6.28;;
19605;SDS011;9950;50.168;8.210;2024-03-02T09:03:25;8.93;;;5.78;;
19605;SDS011;9950;50.168;8.210;2024-03-02T09:05:52;9.52;;;5.75;;
19605;SDS011;9950;50.168;8.210;2024-03-02T09:08:20;9.38;;;6.03;;
19605;SDS011;9950;50.168;8.210;2024-03-02T09:10:47;9.73;;;6.03;;
19605;SDS011;9950;50.168;8.210;2024-03-02T09:13:15;10.88;;;6.15;;
19605;SDS011;9950;50.168;8.210;2024-03-02T09:15:43;9.68;;;6.28;;
19605;SDS011;9950;50.168;8.210;2024-03-02T09:18:10;8.57;;;6.10;;
19605;SDS011;9950;50.168;8.210;2024-03-02T09:20:37;9.15;;;6.85;;
19605;SDS011;9950;50.168;8.210;2024-03-02T09:23:05;10.93;;;7.40;;
19605;SDS011;9950;50.168;8.210;2024-03-02T09:25:32;11.98;;;7.80;;
19605;SDS011;9950;50.168;8.210;2024-03-02T09:27:59;12.32;;;7.53;;
19605;SDS011;9950;50.168;8.210;2024-03-02T09:30:29;12.45;;;7.60;;
19605;SDS011;9950;50.168;8.210;2024-03-02T09:32:56;10.20;;;7.05;;
19605;SDS011;9950;50.168;8.210;2024-03-02T09:35:24;10.90;;;7.30;;
19605;SDS011;9950;50.168;8.210;2024-03-02T09:37:51;8.88;;;5.93;;
19605;SDS011;9950;50.168;8.210;2024-03-02T09:40:21;11.10;;;6.57;;
19605;SDS011;9950;50.168;8.210;2024-03-02T09:42:48;8.63;;;6.43;;
19605;SDS011;9950;50.168;8.210;2024-03-02T09:45:18;8.98;;;5.95;;
19605;SDS011;9950;50.168;8.210;2024-03-02T09:47:48;9.90;;;6.43;;
19605;SDS011;9950;50.168;8.210;2024-03-02T09:50:16;8.05;;;5.45;;
19605;SDS011;9950;50.168;8.210;2024-03-02T09:52:43;9.52;;;6.13;;
19605;SDS011;9950;50.168;8.210;2024-03-02T09:55:11;8.07;;;5.55;;
19605;SDS011;9950;50.168;8.210;2024-03-02T09:57:38;8.38;;;5.97;;
19605;SDS011;9950;50.168;8.210;2024-03-02T10:00:07;10.15;;;6.43;;
19605;SDS011;9950;50.168;8.210;2024-03-02T10:02:39;9.50;;;6.22;;
19605;SDS011;9950;50.168;8.210;2024-03-02T10:05:08;11.13;;;7.13;;
19605;SDS011;9950;50.168;8.210;2024-03-02T10:07:36;9.93;;;6.47;;
19605;SDS011;9950;50.168;8.210;2024-03-02T10:10:12;9.60;;;6.57;;
19605;SDS011;9950;50.168;8.210;2024-03-02T10:12:40;8.02;;;6.20;;
19605;SDS011;9950;50.168;8.210;2024-03-02T10:15:07;8.07;;;5.80;;
19605;SDS011;9950;50.168;8.210;2024-03-02T10:17:35;8.45;;;5.65;;
19605;SDS011;9950;50.168;8.210;2024-03-02T10:20:23;7.32;;;5.45;;
19605;SDS011;9950;50.168;8.210;2024-03-02T10:22:50;11.23;;;6.00;;
19605;SDS011;9950;50.168;8.210;2024-03-02T10:25:30;6.95;;;5.20;;
19605;SDS011;9950;50.168;8.210;2024-03-02T10:27:57;8.85;;;5.05;;
19605;SDS011;9950;50.168;8.210;2024-03-02T10:30:25;7.38;;;5.30;;
19605;SDS011;9950;50.168;8.210;2024-03-02T10:32:53;6.53;;;4.57;;
19605;SDS011;9950;50.168;8.210;2024-03-02T10:35:22;7.47;;;5.20;;
19605;SDS011;9950;50.168;8.210;2024-03-02T10:37:51;7.13;;;5.40;;
19605;SDS011;9950;50.168;8.210;2024-03-02T10:40:20;9.93;;;4.82;;
19605;SDS011;9950;50.168;8.210;2024-03-02T10:42:48;7.20;;;5.47;;
19605;SDS011;9950;50.168;8.210;2024-03-02T10:45:16;9.50;;;6.05;;
19605;SDS011;9950;50.168;8.210;2024-03-02T10:47:44;7.20;;;5.15;;
19605;SDS011;9950;50.168;8.210;2024-03-02T10:50:11;8.02;;;5.80;;
19605;SDS011;9950;50.168;8.210;2024-03-02T10:52:40;8.30;;;5.95;;
19605;SDS011;9950;50.168;8.210;2024-03-02T10:55:08;12.15;;;6.20;;
19605;SDS011;9950;50.168;8.210;2024-03-02T10:57:40;7.32;;;5.57;;
19605;SDS011;9950;50.168;8.210;2024-03-02T11:00:08;6.57;;;4.70;;
19605;SDS011;9950;50.168;8.210;2024-03-02T11:02:42;7.63;;;5.30;;
19605;SDS011;9950;50.168;8.210;2024-03-02T11:05:11;8.23;;;5.82;;
19605;SDS011;9950;50.168;8.210;2024-03-02T11:07:41;6.05;;;5.15;;
19605;SDS011;9950;50.168;8.210;2024-03-02T11:10:08;7.57;;;5.38;;
19605;SDS011;9950;50.168;8.210;2024-03-02T11:12:38;7.88;;;5.43;;
19605;SDS011;9950;50.168;8.210;2024-03-02T11:15:08;8.23;;;5.20;;
19605;SDS011;9950;50.168;8.210;2024-03-02T11:17:37;7.97;;;4.78;;
19605;SDS011;9950;50.168;8.210;2024-03-02T11:20:05;6.78;;;4.55;;
19605;SDS011;9950;50.168;8.210;2024-03-02T11:22:34;6.25;;;5.10;;
19605;SDS011;9950;50.168;8.210;2024-03-02T11:25:03;7.45;;;4.82;;
19605;SDS011;9950;50.168;8.210;2024-03-02T11:33:01;9.70;;;4.47;;
19605;SDS011;9950;50.168;8.210;2024-03-02T11:35:32;7.43;;;4.63;;
19605;SDS011;9950;50.168;8.210;2024-03-02T11:38:00;6.35;;;4.10;;
19605;SDS011;9950;50.168;8.210;2024-03-02T11:40:30;5.93;;;4.13;;
19605;SDS011;9950;50.168;8.210;2024-03-02T11:42:58;7.65;;;4.30;;
19605;SDS011;9950;50.168;8.210;2024-03-02T11:45:26;5.07;;;4.10;;
19605;SDS011;9950;50.168;8.210;2024-03-02T11:47:54;6.13;;;4.30;;
19605;SDS011;9950;50.168;8.210;2024-03-02T11:50:28;7.00;;;5.07;;
19605;SDS011;9950;50.168;8.210;2024-03-02T11:52:56;7.10;;;3.45;;
19605;SDS011;9950;50.168;8.210;2024-03-02T11:55:23;5.40;;;3.35;;
19605;SDS011;9950;50.168;8.210;2024-03-02T11:57:53;5.80;;;3.65;;
19605;SDS011;9950;50.168;8.210;2024-03-02T12:00:21;6.63;;;3.58;;
19605;SDS011;9950;50.168;8.210;2024-03-02T12:02:59;4.68;;;3.33;;
19605;SDS011;9950;50.168;8.210;2024-03-02T12:05:27;4.43;;;3.35;;
19605;SDS011;9950;50.168;8.210;2024-03-02T12:07:55;5.72;;;2.95;;
19605;SDS011;9950;50.168;8.210;2024-03-02T12:10:23;6.40;;;3.80;;
19605;SDS011;9950;50.168;8.210;2024-03-02T12:12:56;6.75;;;3.00;;
19605;SDS011;9950;50.168;8.210;2024-03-02T12:15:25;6.47;;;4.47;;
19605;SDS011;9950;50.168;8.210;2024-03-02T12:17:53;4.22;;;3.38;;
19605;SDS011;9950;50.168;8.210;2024-03-02T12:20:21;5.10;;;3.03;;
19605;SDS011;9950;50.168;8.210;2024-03-02T12:22:49;3.05;;;2.28;;
19605;SDS011;9950;50.168;8.210;2024-03-02T12:25:17;6.07;;;2.35;;
19605;SDS011;9950;50.168;8.210;2024-03-02T12:27:44;3.47;;;2.38;;
19605;SDS011;9950;50.168;8.210;2024-03-02T12:30:14;2.60;;;1.80;;
19605;SDS011;9950;50.168;8.210;2024-03-02T12:32:41;4.38;;;2.72;;
19605;SDS011;9950;50.168;8.210;2024-03-02T12:35:09;4.55;;;2.45;;
19605;SDS011;9950;50.168;8.210;2024-03-02T12:37:43;6.28;;;2.72;;
19605;SDS011;9950;50.168;8.210;2024-03-02T12:40:11;5.00;;;2.35;;
19605;SDS011;9950;50.168;8.210;2024-03-02T12:42:38;4.25;;;3.13;;
19605;SDS011;9950;50.168;8.210;2024-03-02T12:45:07;3.75;;;2.65;;
19605;SDS011;9950;50.168;8.210;2024-03-02T12:47:36;5.05;;;2.85;;
19605;SDS011;9950;50.168;8.210;2024-03-02T12:50:03;4.30;;;3.00;;
19605;SDS011;9950;50.168;8.210;2024-03-02T12:52:31;4.53;;;3.10;;
19605;SDS011;9950;50.168;8.210;2024-03-02T12:54:59;2.78;;;2.00;;
19605;SDS011;9950;50.168;8.210;2024-03-02T12:57:28;3.58;;;2.50;;
19605;SDS011;9950;50.168;8.210;2024-03-02T12:59:59;4.57;;;2.97;;
19605;SDS011;9950;50.168;8.210;2024-03-02T13:02:27;2.42;;;1.92;;
19605;SDS011;9950;50.168;8.210;2024-03-02T13:04:57;2.83;;;2.00;;
19605;SDS011;9950;50.168;8.210;2024-03-02T13:07:25;2.17;;;1.60;;
19605;SDS011;9950;50.168;8.210;2024-03-02T13:09:52;3.40;;;2.10;;
19605;SDS011;9950;50.168;8.210;2024-03-02T13:12:21;4.75;;;2.50;;
19605;SDS011;9950;50.168;8.210;2024-03-02T13:14:49;3.30;;;2.38;;
19605;SDS011;9950;50.168;8.210;2024-03-02T13:17:17;3.40;;;2.38;;
19605;SDS011;9950;50.168;8.210;2024-03-02T13:19:51;3.25;;;2.50;;
19605;SDS011;9950;50.168;8.210;2024-03-02T13:22:20;4.55;;;2.20;;
19605;SDS011;9950;50.168;8.210;2024-03-02T13:24:48;3.65;;;2.25;;
19605;SDS011;9950;50.168;8.210;2024-03-02T13:27:15;3.90;;;2.47;;
19605;SDS011;9950;50.168;8.210;2024-03-02T13:29:44;4.47;;;2.90;;
19605;SDS011;9950;50.168;8.210;2024-03-02T13:32:12;3.15;;;2.75;;
19605;SDS011;9950;50.168;8.210;2024-03-02T13:34:40;3.45;;;2.72;;
19605;SDS011;9950;50.168;8.210;2024-03-02T13:37:07;4.45;;;2.63;;
19605;SDS011;9950;50.168;8.210;2024-03-02T13:39:36;3.30;;;2.40;;
19605;SDS011;9950;50.168;8.210;2024-03-02T13:42:07;4.15;;;2.55;;
19605;SDS011;9950;50.168;8.210;2024-03-02T13:44:35;4.18;;;3.00;;
19605;SDS011;9950;50.168;8.210;2024-03-02T13:47:02;3.63;;;3.08;;
19605;SDS011;9950;50.168;8.210;2024-03-02T13:49:30;4.38;;;2.85;;
19605;SDS011;9950;50.168;8.210;2024-03-02T13:52:01;4.43;;;2.97;;
19605;SDS011;9950;50.168;8.210;2024-03-02T13:54:37;4.43;;;3.50;;
19605;SDS011;9950;50.168;8.210;2024-03-02T13:57:05;4.18;;;3.05;;
19605;SDS011;9950;50.168;8.210;2024-03-02T13:59:32;4.07;;;3.00;;
19605;SDS011;9950;50.168;8.210;2024-03-02T14:02:00;3.17;;;2.70;;
19605;SDS011;9950;50.168;8.210;2024-03-02T14:04:29;3.50;;;2.90;;
19605;SDS011;9950;50.168;8.210;2024-03-02T14:06:56;4.32;;;3.20;;
19605;SDS011;9950;50.168;8.210;2024-03-02T14:09:24;3.30;;;2.42;;
19605;SDS011;9950;50.168;8.210;2024-03-02T14:11:53;4.10;;;2.90;;
19605;SDS011;9950;50.168;8.210;2024-03-02T14:14:21;3.95;;;2.10;;
19605;SDS011;9950;50.168;8.210;2024-03-02T14:16:49;2.83;;;2.40;;
19605;SDS011;9950;50.168;8.210;2024-03-02T14:19:16;2.33;;;1.95;;
19605;SDS011;9950;50.168;8.210;2024-03-02T14:21:44;4.60;;;2.60;;
19605;SDS011;9950;50.168;8.210;2024-03-02T14:24:12;3.45;;;2.50;;
19605;SDS011;9950;50.168;8.210;2024-03-02T14:26:39;4.57;;;2.30;;
19605;SDS011;9950;50.168;8.210;2024-03-02T14:29:08;4.03;;;2.53;;
19605;SDS011;9950;50.168;8.210;2024-03-02T14:31:36;4.03;;;2.80;;
19605;SDS011;9950;50.168;8.210;2024-03-02T14:34:03;4.93;;;2.72;;
19605;SDS011;9950;50.168;8.210;2024-03-02T14:36:31;3.95;;;2.80;;
19605;SDS011;9950;50.168;8.210;2024-03-02T14:38:59;5.07;;;3.15;;
19605;SDS011;9950;50.168;8.210;2024-03-02T14:41:26;4.28;;;3.00;;
19605;SDS011;9950;50.168;8.210;2024-03-02T14:43:53;5.70;;;3.22;;
19605;SDS011;9950;50.168;8.210;2024-03-02T14:46:22;4.13;;;2.90;;
19605;SDS011;9950;50.168;8.210;2024-03-02T14:48:49;3.03;;;2.53;;
19605;SDS011;9950;50.168;8.210;2024-03-02T14:51:17;3.78;;;2.90;;
19605;SDS011;9950;50.168;8.210;2024-03-02T14:53:44;4.13;;;3.08;;
19605;SDS011;9950;50.168;8.210;2024-03-02T14:56:11;4.63;;;3.53;;
19605;SDS011;9950;50.168;8.210;2024-03-02T14:58:39;3.95;;;2.55;;